Time,TemperatureF,DewpointF,PressureIn,WindDirection,WindDirectionDegrees,WindSpeedMPH,WindSpeedGustMPH,Humidity,HourlyPrecipIn,Conditions,Clouds,dailyrainin,SoftwareType,DateUTC
2013-09-07 00:05:00,61.3,44.6,29.73,NW,322,3.0,5.0,54,0.00,,,0.00,meteohub,2013-09-07 06:05:00,
2013-09-07 00:11:00,61.2,43.9,29.73,NW,322,3.0,5.0,53,0.00,,,0.00,meteohub,2013-09-07 06:11:00,
2013-09-07 00:17:00,61.0,44.2,29.73,NW,322,0.0,4.0,54,0.00,,,0.00,meteohub,2013-09-07 06:17:00,
2013-09-07 00:23:00,60.6,44.8,29.73,NW,322,3.0,4.0,56,0.00,,,0.00,meteohub,2013-09-07 06:23:00,
2013-09-07 00:29:00,60.1,44.8,29.73,NW,322,1.0,4.0,57,0.00,,,0.00,meteohub,2013-09-07 06:29:00,
2013-09-07 00:35:00,59.5,45.1,29.73,NW,322,4.0,4.0,59,0.00,,,0.00,meteohub,2013-09-07 06:35:00,
2013-09-07 00:41:00,59.2,44.4,29.73,NW,322,3.0,4.0,58,0.00,,,0.00,meteohub,2013-09-07 06:41:00,
2013-09-07 00:47:00,59.2,44.8,29.73,NW,322,4.0,4.0,59,0.00,,,0.00,meteohub,2013-09-07 06:47:00,
2013-09-07 00:53:00,58.8,44.6,29.73,NW,322,3.0,4.0,59,0.00,,,0.00,meteohub,2013-09-07 06:53:00,
2013-09-07 00:59:00,59.0,44.2,29.74,NW,322,4.0,4.0,58,0.00,,,0.00,meteohub,2013-09-07 06:59:00,
2013-09-07 01:05:00,59.2,43.9,29.74,NW,322,1.0,5.0,57,0.00,,,0.00,meteohub,2013-09-07 07:05:00,
2013-09-07 01:11:00,59.2,43.9,29.74,NW,322,1.0,5.0,57,0.00,,,0.00,meteohub,2013-09-07 07:11:00,
2013-09-07 01:17:00,58.6,43.5,29.74,NW,322,1.0,4.0,57,0.00,,,0.00,meteohub,2013-09-07 07:17:00,
2013-09-07 01:23:00,58.6,43.5,29.74,NW,322,0.0,5.0,57,0.00,,,0.00,meteohub,2013-09-07 07:23:00,
2013-09-07 01:29:00,58.6,43.9,29.74,NW,322,0.0,5.0,58,0.00,,,0.00,meteohub,2013-09-07 07:29:00,
2013-09-07 01:35:00,58.5,44.6,29.74,NW,322,0.0,1.0,60,0.00,,,0.00,meteohub,2013-09-07 07:35:00,
2013-09-07 01:41:00,57.9,44.1,29.74,NW,322,0.0,1.0,60,0.00,,,0.00,meteohub,2013-09-07 07:41:00,
2013-09-07 01:47:00,57.7,43.9,29.74,NW,322,1.0,1.0,60,0.00,,,0.00,meteohub,2013-09-07 07:47:00,
2013-09-07 01:53:00,57.7,43.9,29.75,NW,322,2.0,2.0,60,0.00,,,0.00,meteohub,2013-09-07 07:53:00,
2013-09-07 01:59:00,57.4,43.7,29.75,NW,322,3.0,3.0,60,0.00,,,0.00,meteohub,2013-09-07 07:59:00,
2013-09-07 02:05:00,57.0,43.7,29.74,NW,322,3.0,4.0,61,0.00,,,0.00,meteohub,2013-09-07 08:05:00,
2013-09-07 02:11:00,56.5,43.7,29.75,NW,322,2.0,5.0,62,0.00,,,0.00,meteohub,2013-09-07 08:11:00,
2013-09-07 02:17:00,56.1,43.3,29.75,NW,318,2.0,6.0,62,0.00,,,0.00,meteohub,2013-09-07 08:17:00,
2013-09-07 02:23:00,56.1,43.3,29.74,WNW,295,4.0,6.0,62,0.00,,,0.00,meteohub,2013-09-07 08:23:00,
2013-09-07 02:29:00,55.8,43.3,29.75,WNW,295,4.0,7.0,63,0.00,,,0.00,meteohub,2013-09-07 08:29:00,
2013-09-07 02:35:00,55.4,43.0,29.75,WNW,295,4.0,7.0,63,0.00,,,0.00,meteohub,2013-09-07 08:35:00,
2013-09-07 02:41:00,55.6,43.2,29.75,WNW,295,3.0,5.0,63,0.00,,,0.00,meteohub,2013-09-07 08:41:00,
2013-09-07 02:47:00,55.6,43.2,29.75,WNW,295,4.0,5.0,63,0.00,,,0.00,meteohub,2013-09-07 08:47:00,
2013-09-07 02:53:00,55.6,43.2,29.75,WNW,295,5.0,6.0,63,0.00,,,0.00,meteohub,2013-09-07 08:53:00,
2013-09-07 02:59:00,55.2,42.8,29.75,WNW,294,5.0,6.0,63,0.00,,,0.00,meteohub,2013-09-07 08:59:00,
2013-09-07 03:05:00,55.4,42.6,29.74,WNW,292,5.0,8.0,62,0.00,,,0.00,meteohub,2013-09-07 09:05:00,
2013-09-07 03:11:00,56.1,42.8,29.74,WNW,294,2.0,8.0,61,0.00,,,0.00,meteohub,2013-09-07 09:11:00,
2013-09-07 03:18:00,56.8,43.2,29.74,WNW,294,2.0,8.0,60,0.00,,,0.00,meteohub,2013-09-07 09:18:00,
2013-09-07 03:24:00,57.0,42.8,29.75,WNW,294,2.0,7.0,59,0.00,,,0.00,meteohub,2013-09-07 09:24:00,
2013-09-07 03:30:00,55.9,42.3,29.75,WNW,295,3.0,5.0,60,0.00,,,0.00,meteohub,2013-09-07 09:30:00,
2013-09-07 03:36:00,55.6,42.8,29.75,WNW,295,0.0,4.0,62,0.00,,,0.00,meteohub,2013-09-07 09:36:00,
2013-09-07 03:42:00,55.2,43.3,29.75,WNW,295,2.0,4.0,64,0.00,,,0.00,meteohub,2013-09-07 09:42:00,
2013-09-07 03:48:00,54.9,43.3,29.75,WNW,295,2.0,4.0,65,0.00,,,0.00,meteohub,2013-09-07 09:48:00,
2013-09-07 03:54:00,54.5,43.3,29.75,WNW,295,0.0,4.0,66,0.00,,,0.00,meteohub,2013-09-07 09:54:00,
2013-09-07 04:00:00,54.1,43.3,29.75,WNW,295,0.0,4.0,67,0.00,,,0.00,meteohub,2013-09-07 10:00:00,
2013-09-07 04:06:00,54.0,44.1,29.75,WNW,295,2.0,2.0,69,0.00,,,0.00,meteohub,2013-09-07 10:06:00,
2013-09-07 04:12:00,54.1,43.9,29.75,WNW,295,0.0,4.0,68,0.00,,,0.00,meteohub,2013-09-07 10:12:00,
2013-09-07 04:18:00,54.1,43.9,29.75,WNW,295,2.0,4.0,68,0.00,,,0.00,meteohub,2013-09-07 10:18:00,
2013-09-07 04:24:00,54.3,44.1,29.76,WNW,295,0.0,3.0,68,0.00,,,0.00,meteohub,2013-09-07 10:24:00,
2013-09-07 04:30:00,54.3,44.1,29.76,WNW,295,2.0,3.0,68,0.00,,,0.00,meteohub,2013-09-07 10:30:00,
2013-09-07 04:36:00,54.1,43.9,29.75,WNW,295,1.0,3.0,68,0.00,,,0.00,meteohub,2013-09-07 10:36:00,
2013-09-07 04:42:00,53.8,43.9,29.76,WNW,295,0.0,3.0,69,0.00,,,0.00,meteohub,2013-09-07 10:42:00,
2013-09-07 04:48:00,53.8,43.9,29.76,WNW,295,2.0,3.0,69,0.00,,,0.00,meteohub,2013-09-07 10:48:00,
2013-09-07 04:54:00,53.2,43.7,29.76,WNW,295,2.0,3.0,70,0.00,,,0.00,meteohub,2013-09-07 10:54:00,
2013-09-07 05:00:00,53.1,43.5,29.76,WNW,295,1.0,3.0,70,0.00,,,0.00,meteohub,2013-09-07 11:00:00,
2013-09-07 05:06:00,52.9,43.0,29.76,WNW,295,1.0,3.0,69,0.00,,,0.00,meteohub,2013-09-07 11:06:00,
2013-09-07 05:12:00,53.1,42.8,29.76,WNW,295,3.0,3.0,68,0.00,,,0.00,meteohub,2013-09-07 11:12:00,
2013-09-07 05:18:00,53.6,43.0,29.76,WNW,295,1.0,4.0,67,0.00,,,0.00,meteohub,2013-09-07 11:18:00,
2013-09-07 05:24:00,53.8,43.2,29.76,WNW,295,0.0,4.0,67,0.00,,,0.00,meteohub,2013-09-07 11:24:00,
2013-09-07 05:30:00,54.0,43.3,29.76,WNW,295,1.0,3.0,67,0.00,,,0.00,meteohub,2013-09-07 11:30:00,
2013-09-07 05:36:00,53.4,43.2,29.76,WNW,295,1.0,2.0,68,0.00,,,0.00,meteohub,2013-09-07 11:36:00,
2013-09-07 05:42:00,53.2,42.3,29.76,WNW,295,1.0,4.0,66,0.00,,,0.00,meteohub,2013-09-07 11:42:00,
2013-09-07 05:48:00,53.6,42.1,29.76,WNW,295,2.0,6.0,65,0.00,,,0.00,meteohub,2013-09-07 11:48:00,
2013-09-07 05:54:00,54.0,40.8,29.76,West,276,4.0,6.0,61,0.00,,,0.00,meteohub,2013-09-07 11:54:00,
2013-09-07 06:00:00,55.8,39.9,29.77,WSW,239,3.0,8.0,55,0.00,,,0.00,meteohub,2013-09-07 12:00:00,
2013-09-07 06:06:00,56.7,41.2,29.77,WSW,239,2.0,8.0,56,0.00,,,0.00,meteohub,2013-09-07 12:06:00,
2013-09-07 06:12:00,56.1,41.2,29.77,WSW,239,5.0,8.0,57,0.00,,,0.00,meteohub,2013-09-07 12:12:00,
2013-09-07 06:18:00,55.6,40.6,29.77,South,187,7.0,7.0,57,0.00,,,0.00,meteohub,2013-09-07 12:18:00,
2013-09-07 06:24:00,55.9,39.9,29.77,SSW,212,4.0,9.0,55,0.00,,,0.00,meteohub,2013-09-07 12:24:00,
2013-09-07 06:30:00,55.9,40.5,29.77,SSW,212,2.0,8.0,56,0.00,,,0.00,meteohub,2013-09-07 12:30:00,
2013-09-07 06:36:00,55.8,40.8,29.77,SSW,213,2.0,8.0,57,0.00,,,0.00,meteohub,2013-09-07 12:36:00,
2013-09-07 06:42:00,55.0,40.5,29.78,SSW,213,0.0,7.0,58,0.00,,,0.00,meteohub,2013-09-07 12:42:00,
2013-09-07 06:48:00,54.3,40.3,29.78,SSW,213,1.0,7.0,59,0.00,,,0.00,meteohub,2013-09-07 12:48:00,
2013-09-07 06:54:00,54.0,40.5,29.78,SSW,213,1.0,4.0,60,0.00,,,0.00,meteohub,2013-09-07 12:54:00,
2013-09-07 07:01:00,53.8,40.6,29.78,SW,214,4.0,4.0,61,0.00,,,0.00,meteohub,2013-09-07 13:01:00,
2013-09-07 07:07:00,54.0,39.9,29.78,SW,214,0.0,5.0,59,0.00,,,0.00,meteohub,2013-09-07 13:07:00,
2013-09-07 07:12:00,54.5,41.7,29.79,SW,214,0.0,5.0,62,0.00,,,0.00,meteohub,2013-09-07 13:12:00,
2013-09-07 07:19:00,55.2,41.5,29.79,SW,214,2.0,5.0,60,0.00,,,0.00,meteohub,2013-09-07 13:19:00,
2013-09-07 07:25:00,56.1,41.5,29.79,SW,214,0.0,4.0,58,0.00,,,0.00,meteohub,2013-09-07 13:25:00,
2013-09-07 07:31:00,56.8,42.3,29.79,SW,214,0.0,4.0,58,0.00,,,0.00,meteohub,2013-09-07 13:31:00,
2013-09-07 07:37:00,57.7,42.6,29.79,SW,214,0.0,4.0,57,0.00,,,0.00,meteohub,2013-09-07 13:37:00,
2013-09-07 07:43:00,58.6,42.4,29.79,SW,214,0.0,1.0,55,0.00,,,0.00,meteohub,2013-09-07 13:43:00,
2013-09-07 07:49:00,59.5,42.4,29.79,SW,214,1.0,2.0,53,0.00,,,0.00,meteohub,2013-09-07 13:49:00,
2013-09-07 07:55:00,60.3,43.0,29.79,SW,214,1.0,2.0,53,0.00,,,0.00,meteohub,2013-09-07 13:55:00,
2013-09-07 08:01:00,60.4,43.7,29.79,SW,214,3.0,3.0,54,0.00,,,0.00,meteohub,2013-09-07 14:01:00,
2013-09-07 08:07:00,60.1,44.4,29.79,SW,214,1.0,4.0,56,0.00,,,0.00,meteohub,2013-09-07 14:07:00,
2013-09-07 08:13:00,60.1,44.8,29.79,SW,214,1.0,4.0,57,0.00,,,0.00,meteohub,2013-09-07 14:13:00,
2013-09-07 08:19:00,60.4,44.2,29.79,SW,214,1.0,4.0,55,0.00,,,0.00,meteohub,2013-09-07 14:19:00,
2013-09-07 08:25:00,61.0,43.7,29.78,SW,214,0.0,3.0,53,0.00,,,0.00,meteohub,2013-09-07 14:25:00,
2013-09-07 08:31:00,61.3,44.1,29.78,SW,214,2.0,4.0,53,0.00,,,0.00,meteohub,2013-09-07 14:31:00,
2013-09-07 08:37:00,61.5,44.8,29.78,SW,214,1.0,4.0,54,0.00,,,0.00,meteohub,2013-09-07 14:37:00,
2013-09-07 08:43:00,62.2,45.0,29.78,SW,214,2.0,4.0,53,0.00,,,0.00,meteohub,2013-09-07 14:43:00,
2013-09-07 08:49:00,62.8,45.3,29.78,SW,214,1.0,4.0,53,0.00,,,0.00,meteohub,2013-09-07 14:49:00,
2013-09-07 08:55:00,62.8,45.3,29.78,SW,214,0.0,4.0,53,0.00,,,0.00,meteohub,2013-09-07 14:55:00,
2013-09-07 09:01:00,63.1,46.2,29.78,SW,214,3.0,4.0,54,0.00,,,0.00,meteohub,2013-09-07 15:01:00,
2013-09-07 09:07:00,63.1,45.1,29.78,SW,214,2.0,4.0,52,0.00,,,0.00,meteohub,2013-09-07 15:07:00,
2013-09-07 09:13:00,63.1,45.1,29.78,SW,214,0.0,4.0,52,0.00,,,0.00,meteohub,2013-09-07 15:13:00,
2013-09-07 09:19:00,63.9,46.4,29.78,SW,214,1.0,4.0,53,0.00,,,0.00,meteohub,2013-09-07 15:19:00,
2013-09-07 09:25:00,64.6,46.0,29.78,SW,214,1.0,4.0,51,0.00,,,0.00,meteohub,2013-09-07 15:25:00,
2013-09-07 09:31:00,65.1,46.6,29.78,SW,214,4.0,4.0,51,0.00,,,0.00,meteohub,2013-09-07 15:31:00,
2013-09-07 09:37:00,65.8,46.2,29.78,SW,214,5.0,5.0,49,0.00,,,0.00,meteohub,2013-09-07 15:37:00,
2013-09-07 09:43:00,66.9,46.6,29.78,SSW,205,4.0,5.0,48,0.00,,,0.00,meteohub,2013-09-07 15:43:00,
2013-09-07 09:49:00,67.5,46.0,29.78,SSW,193,3.0,7.0,46,0.00,,,0.00,meteohub,2013-09-07 15:49:00,
2013-09-07 09:55:00,67.6,46.0,29.78,South,178,3.0,8.0,46,0.00,,,0.00,meteohub,2013-09-07 15:55:00,
2013-09-07 10:01:00,67.8,46.9,29.78,South,172,1.0,8.0,47,0.00,,,0.00,meteohub,2013-09-07 16:01:00,
2013-09-07 10:07:00,68.4,46.8,29.78,South,172,3.0,7.0,46,0.00,,,0.00,meteohub,2013-09-07 16:07:00,
2013-09-07 10:13:00,68.7,47.7,29.78,SSE,164,5.0,7.0,47,0.00,,,0.00,meteohub,2013-09-07 16:13:00,
2013-09-07 10:19:00,69.1,46.2,29.78,SSE,158,5.0,8.0,44,0.00,,,0.00,meteohub,2013-09-07 16:19:00,
2013-09-07 10:25:00,69.3,46.9,29.78,SSE,156,5.0,8.0,45,0.00,,,0.00,meteohub,2013-09-07 16:25:00,
2013-09-07 10:31:00,69.8,47.5,29.77,SSE,156,5.0,7.0,45,0.00,,,0.00,meteohub,2013-09-07 16:31:00,
2013-09-07 10:37:00,70.7,47.1,29.77,SSE,156,3.0,7.0,43,0.00,,,0.00,meteohub,2013-09-07 16:37:00,
2013-09-07 10:43:00,71.2,46.9,29.77,SSE,155,4.0,6.0,42,0.00,,,0.00,meteohub,2013-09-07 16:43:00,
2013-09-07 10:49:00,71.4,45.9,29.77,SE,141,1.0,6.0,40,0.00,,,0.00,meteohub,2013-09-07 16:49:00,
2013-09-07 10:56:00,72.0,46.4,29.77,SE,141,4.0,9.0,40,0.00,,,0.00,meteohub,2013-09-07 16:56:00,
2013-09-07 11:02:00,72.7,46.2,29.76,SE,133,2.0,9.0,39,0.00,,,0.00,meteohub,2013-09-07 17:02:00,
2013-09-07 11:08:00,73.0,45.9,29.76,SE,134,3.0,9.0,38,0.00,,,0.00,meteohub,2013-09-07 17:08:00,
2013-09-07 11:14:00,73.2,46.0,29.76,SE,136,2.0,9.0,38,0.00,,,0.00,meteohub,2013-09-07 17:14:00,
2013-09-07 11:20:00,73.8,45.9,29.76,SE,137,3.0,8.0,37,0.00,,,0.00,meteohub,2013-09-07 17:20:00,
2013-09-07 11:26:00,74.3,45.0,29.75,SE,139,5.0,8.0,35,0.00,,,0.00,meteohub,2013-09-07 17:26:00,
2013-09-07 11:32:00,74.7,43.7,29.75,SE,143,3.0,7.0,33,0.00,,,0.00,meteohub,2013-09-07 17:32:00,
2013-09-07 11:38:00,74.7,44.4,29.75,SE,143,0.0,8.0,34,0.00,,,0.00,meteohub,2013-09-07 17:38:00,
2013-09-07 11:44:00,75.2,43.3,29.75,SE,131,1.0,8.0,32,0.00,,,0.00,meteohub,2013-09-07 17:44:00,
2013-09-07 11:50:00,75.7,43.7,29.74,ESE,119,0.0,8.0,32,0.00,,,0.00,meteohub,2013-09-07 17:50:00,
2013-09-07 11:56:00,76.8,43.9,29.74,ESE,119,2.0,8.0,31,0.00,,,0.00,meteohub,2013-09-07 17:56:00,
2013-09-07 12:02:00,77.5,43.7,29.73,ESE,119,5.0,7.0,30,0.00,,,0.00,meteohub,2013-09-07 18:02:00,
2013-09-07 12:08:00,77.7,41.0,29.73,ESE,122,5.0,7.0,27,0.00,,,0.00,meteohub,2013-09-07 18:08:00,
2013-09-07 12:14:00,77.5,39.9,29.73,ESE,120,1.0,9.0,26,0.00,,,0.00,meteohub,2013-09-07 18:14:00,
2013-09-07 12:20:00,78.1,40.5,29.73,ESE,120,5.0,9.0,26,0.00,,,0.00,meteohub,2013-09-07 18:20:00,
2013-09-07 12:26:00,78.1,39.4,29.73,ESE,116,5.0,8.0,25,0.00,,,0.00,meteohub,2013-09-07 18:26:00,
2013-09-07 12:32:00,78.4,38.7,29.72,ESE,118,0.0,12.0,24,0.00,,,0.00,meteohub,2013-09-07 18:32:00,
2013-09-07 12:38:00,78.6,39.9,29.72,ESE,118,3.0,12.0,25,0.00,,,0.00,meteohub,2013-09-07 18:38:00,
2013-09-07 12:44:00,79.0,40.1,29.72,ESE,111,3.0,12.0,25,0.00,,,0.00,meteohub,2013-09-07 18:44:00,
2013-09-07 12:50:00,79.2,39.2,29.72,ESE,112,7.0,9.0,24,0.00,,,0.00,meteohub,2013-09-07 18:50:00,
2013-09-07 12:56:00,79.3,39.4,29.72,ESE,111,1.0,9.0,24,0.00,,,0.00,meteohub,2013-09-07 18:56:00,
2013-09-07 13:02:00,79.9,37.6,29.72,ESE,114,5.0,7.0,22,0.00,,,0.00,meteohub,2013-09-07 19:02:00,
2013-09-07 13:08:00,79.7,37.6,29.71,ESE,107,1.0,11.0,22,0.00,,,0.00,meteohub,2013-09-07 19:08:00,
2013-09-07 13:14:00,79.9,38.8,29.71,East,89,2.0,11.0,23,0.00,,,0.00,meteohub,2013-09-07 19:14:00,
2013-09-07 13:20:00,80.1,37.8,29.71,SE,128,5.0,11.0,22,0.00,,,0.00,meteohub,2013-09-07 19:20:00,
2013-09-07 13:26:00,80.1,37.8,29.71,ESE,117,0.0,14.0,22,0.00,,,0.00,meteohub,2013-09-07 19:26:00,
2013-09-07 13:32:00,80.6,37.0,29.70,ESE,113,4.0,14.0,21,0.00,,,0.00,meteohub,2013-09-07 19:32:00,
2013-09-07 13:38:00,81.3,36.5,29.70,ESE,104,0.0,11.0,20,0.00,,,0.00,meteohub,2013-09-07 19:38:00,
2013-09-07 13:44:00,81.0,38.5,29.70,ESE,113,1.0,11.0,22,0.00,,,0.00,meteohub,2013-09-07 19:44:00,
2013-09-07 13:50:00,81.1,37.6,29.70,ESE,103,6.0,12.0,21,0.00,,,0.00,meteohub,2013-09-07 19:50:00,
2013-09-07 13:56:00,81.5,39.0,29.69,ESE,112,9.0,12.0,22,0.00,,,0.00,meteohub,2013-09-07 19:56:00,
2013-09-07 14:02:00,81.3,36.5,29.69,ESE,110,2.0,16.0,20,0.00,,,0.00,meteohub,2013-09-07 20:02:00,
2013-09-07 14:08:00,81.1,37.6,29.69,SSE,154,4.0,16.0,21,0.00,,,0.00,meteohub,2013-09-07 20:08:00,
2013-09-07 14:14:00,81.9,36.9,29.69,ESE,112,9.0,16.0,20,0.00,,,0.00,meteohub,2013-09-07 20:14:00,
2013-09-07 14:20:00,81.3,37.6,29.68,ESE,102,13.0,13.0,21,0.00,,,0.00,meteohub,2013-09-07 20:20:00,
2013-09-07 14:26:00,80.8,36.0,29.68,SE,124,7.0,13.0,20,0.00,,,0.00,meteohub,2013-09-07 20:26:00,
2013-09-07 14:32:00,79.7,36.3,29.68,East,81,4.0,13.0,21,0.00,,,0.00,meteohub,2013-09-07 20:32:00,
2013-09-07 14:38:00,79.2,35.8,29.67,East,99,8.0,13.0,21,0.00,,,0.00,meteohub,2013-09-07 20:38:00,
2013-09-07 14:44:00,79.3,34.7,29.67,East,80,4.0,13.0,20,0.00,,,0.00,meteohub,2013-09-07 20:44:00,
2013-09-07 14:51:00,79.9,35.2,29.67,East,91,8.0,13.0,20,0.00,,,0.00,meteohub,2013-09-07 20:51:00,
2013-09-07 14:57:00,79.9,36.5,29.67,East,89,7.0,10.0,21,0.00,,,0.00,meteohub,2013-09-07 20:57:00,
2013-09-07 15:02:00,80.1,35.4,29.67,ESE,112,7.0,8.0,20,0.00,,,0.00,meteohub,2013-09-07 21:02:00,
2013-09-07 15:09:00,79.5,34.9,29.67,ESE,104,7.0,9.0,20,0.00,,,0.00,meteohub,2013-09-07 21:09:00,
2013-09-07 15:15:00,79.2,33.4,29.66,NE,50,6.0,9.0,19,0.00,,,0.00,meteohub,2013-09-07 21:15:00,
2013-09-07 15:21:00,79.2,33.4,29.66,ENE,78,8.0,9.0,19,0.00,,,0.00,meteohub,2013-09-07 21:21:00,
2013-09-07 15:27:00,79.2,32.0,29.66,East,81,3.0,10.0,18,0.00,,,0.00,meteohub,2013-09-07 21:27:00,
2013-09-07 15:33:00,79.0,33.3,29.65,East,93,6.0,10.0,19,0.00,,,0.00,meteohub,2013-09-07 21:33:00,
2013-09-07 15:39:00,80.4,33.1,29.65,ENE,68,10.0,10.0,18,0.00,,,0.00,meteohub,2013-09-07 21:39:00,
2013-09-07 15:45:00,81.3,33.8,29.65,East,91,9.0,14.0,18,0.00,,,0.00,meteohub,2013-09-07 21:45:00,
2013-09-07 15:51:00,81.7,36.7,29.65,ENE,72,7.0,15.0,20,0.00,,,0.00,meteohub,2013-09-07 21:51:00,
2013-09-07 15:57:00,82.4,36.0,29.65,East,94,6.0,16.0,19,0.00,,,0.00,meteohub,2013-09-07 21:57:00,
2013-09-07 16:03:00,82.8,36.3,29.65,ESE,118,11.0,16.0,19,0.00,,,0.00,meteohub,2013-09-07 22:03:00,
2013-09-07 16:09:00,82.6,34.7,29.65,ENE,68,10.0,15.0,18,0.00,,,0.00,meteohub,2013-09-07 22:09:00,
2013-09-07 16:15:00,82.2,35.8,29.64,East,101,13.0,16.0,19,0.00,,,0.00,meteohub,2013-09-07 22:15:00,
2013-09-07 16:21:00,82.8,36.3,29.64,ESE,109,10.0,16.0,19,0.00,,,0.00,meteohub,2013-09-07 22:21:00,
2013-09-07 16:27:00,82.0,34.3,29.64,ESE,117,14.0,15.0,18,0.00,,,0.00,meteohub,2013-09-07 22:27:00,
2013-09-07 16:33:00,82.6,33.4,29.64,East,101,10.0,15.0,17,0.00,,,0.00,meteohub,2013-09-07 22:33:00,
2013-09-07 16:39:00,82.2,34.5,29.64,East,100,13.0,15.0,18,0.00,,,0.00,meteohub,2013-09-07 22:39:00,
2013-09-07 16:45:00,82.0,31.5,29.64,ESE,106,18.0,19.0,16,0.00,,,0.00,meteohub,2013-09-07 22:45:00,
2013-09-07 16:51:00,81.5,34.0,29.64,ESE,103,10.0,19.0,18,0.00,,,0.00,meteohub,2013-09-07 22:51:00,
2013-09-07 16:57:00,80.8,33.3,29.64,East,95,13.0,22.0,18,0.00,,,0.00,meteohub,2013-09-07 22:57:00,
2013-09-07 17:03:00,80.2,35.6,29.65,ENE,74,10.0,22.0,20,0.00,,,0.00,meteohub,2013-09-07 23:03:00,
2013-09-07 17:09:00,80.2,35.6,29.65,ESE,116,10.0,22.0,20,0.00,,,0.00,meteohub,2013-09-07 23:09:00,
2013-09-07 17:15:00,79.9,36.5,29.64,East,97,16.0,21.0,21,0.00,,,0.00,meteohub,2013-09-07 23:15:00,
2013-09-07 17:21:00,78.3,38.5,29.65,SE,130,9.0,21.0,24,0.00,,,0.00,meteohub,2013-09-07 23:21:00,
2013-09-07 17:27:00,77.9,38.1,29.64,ESE,118,12.0,16.0,24,0.00,,,0.00,meteohub,2013-09-07 23:27:00,
2013-09-07 17:33:00,78.1,38.3,29.65,ESE,118,10.0,17.0,24,0.00,,,0.00,meteohub,2013-09-07 23:33:00,
2013-09-07 17:39:00,78.3,37.4,29.65,ESE,112,12.0,19.0,23,0.00,,,0.00,meteohub,2013-09-07 23:39:00,
2013-09-07 17:45:00,78.1,38.3,29.64,ESE,122,9.0,19.0,24,0.00,,,0.00,meteohub,2013-09-07 23:45:00,
2013-09-07 17:51:00,77.2,38.7,29.64,ESE,103,9.0,16.0,25,0.00,,,0.00,meteohub,2013-09-07 23:51:00,
2013-09-07 17:57:00,76.3,38.8,29.64,East,94,8.0,14.0,26,0.00,,,0.00,meteohub,2013-09-07 23:57:00,
2013-09-07 18:03:00,76.1,38.7,29.65,East,90,7.0,11.0,26,0.00,,,0.00,meteohub,2013-09-08 00:03:00,
2013-09-07 18:09:00,76.3,38.8,29.65,East,99,6.0,13.0,26,0.00,,,0.00,meteohub,2013-09-08 00:09:00,
2013-09-07 18:15:00,75.7,39.4,29.65,ESE,114,9.0,13.0,27,0.00,,,0.00,meteohub,2013-09-08 00:15:00,
2013-09-07 18:21:00,75.2,39.9,29.65,East,99,5.0,13.0,28,0.00,,,0.00,meteohub,2013-09-08 00:21:00,
2013-09-07 18:27:00,74.7,39.4,29.65,East,98,9.0,13.0,28,0.00,,,0.00,meteohub,2013-09-08 00:27:00,
2013-09-07 18:33:00,74.1,39.9,29.65,East,90,7.0,13.0,29,0.00,,,0.00,meteohub,2013-09-08 00:33:00,
2013-09-07 18:40:00,73.8,39.6,29.65,East,90,8.0,14.0,29,0.00,,,0.00,meteohub,2013-09-08 00:40:00,
2013-09-07 18:46:00,73.8,39.6,29.65,East,88,9.0,14.0,29,0.00,,,0.00,meteohub,2013-09-08 00:46:00,
2013-09-07 18:52:00,73.8,39.6,29.66,ESE,108,3.0,13.0,29,0.00,,,0.00,meteohub,2013-09-08 00:52:00,
2013-09-07 18:58:00,73.8,39.6,29.66,ESE,116,4.0,11.0,29,0.00,,,0.00,meteohub,2013-09-08 00:58:00,
2013-09-07 19:04:00,73.6,39.4,29.66,ESE,112,5.0,10.0,29,0.00,,,0.00,meteohub,2013-09-08 01:04:00,
2013-09-07 19:10:00,73.4,39.2,29.65,East,101,6.0,10.0,29,0.00,,,0.00,meteohub,2013-09-08 01:10:00,
2013-09-07 19:16:00,73.2,39.9,29.66,ESE,108,4.0,11.0,30,0.00,,,0.00,meteohub,2013-09-08 01:16:00,
2013-09-07 19:22:00,73.0,39.7,29.66,ESE,107,4.0,12.0,30,0.00,,,0.00,meteohub,2013-09-08 01:22:00,
2013-09-07 19:28:00,73.2,39.0,29.66,SE,135,4.0,12.0,29,0.00,,,0.00,meteohub,2013-09-08 01:28:00,
2013-09-07 19:34:00,73.0,39.7,29.67,SE,136,6.0,11.0,30,0.00,,,0.00,meteohub,2013-09-08 01:34:00,
2013-09-07 19:40:00,72.9,39.6,29.67,SE,132,4.0,11.0,30,0.00,,,0.00,meteohub,2013-09-08 01:40:00,
2013-09-07 19:46:00,72.7,39.4,29.67,SSE,151,5.0,13.0,30,0.00,,,0.00,meteohub,2013-09-08 01:46:00,
2013-09-07 19:52:00,72.5,39.4,29.67,ESE,120,3.0,13.0,30,0.00,,,0.00,meteohub,2013-09-08 01:52:00,
2013-09-07 19:58:00,72.3,39.2,29.68,East,101,7.0,13.0,30,0.00,,,0.00,meteohub,2013-09-08 01:58:00,
2013-09-07 20:04:00,72.3,39.2,29.68,ESE,103,0.0,10.0,30,0.00,,,0.00,meteohub,2013-09-08 02:04:00,
2013-09-07 20:10:00,71.4,39.2,29.68,ESE,103,0.0,10.0,31,0.00,,,0.00,meteohub,2013-09-08 02:10:00,
2013-09-07 20:16:00,71.1,38.8,29.68,ESE,103,0.0,6.0,31,0.00,,,0.00,meteohub,2013-09-08 02:16:00,
2013-09-07 20:22:00,70.5,38.5,29.68,ESE,103,2.0,3.0,31,0.00,,,0.00,meteohub,2013-09-08 02:22:00,
2013-09-07 20:28:00,70.2,38.1,29.68,ESE,103,1.0,3.0,31,0.00,,,0.00,meteohub,2013-09-08 02:28:00,
2013-09-07 20:34:00,69.4,38.3,29.69,ESE,103,1.0,3.0,32,0.00,,,0.00,meteohub,2013-09-08 02:34:00,
2013-09-07 20:40:00,68.7,37.6,29.69,ESE,103,0.0,3.0,32,0.00,,,0.00,meteohub,2013-09-08 02:40:00,
2013-09-07 20:46:00,68.2,37.9,29.69,ESE,103,0.0,2.0,33,0.00,,,0.00,meteohub,2013-09-08 02:46:00,
2013-09-07 20:52:00,67.6,38.3,29.69,ESE,103,1.0,1.0,34,0.00,,,0.00,meteohub,2013-09-08 02:52:00,
2013-09-07 20:58:00,66.7,38.3,29.69,ESE,103,2.0,5.0,35,0.00,,,0.00,meteohub,2013-09-08 02:58:00,
2013-09-07 21:04:00,66.2,38.5,29.69,ESE,103,2.0,5.0,36,0.00,,,0.00,meteohub,2013-09-08 03:04:00,
2013-09-07 21:10:00,65.8,38.1,29.70,ESE,103,2.0,3.0,36,0.00,,,0.00,meteohub,2013-09-08 03:10:00,
2013-09-07 21:16:00,65.8,38.1,29.70,ESE,103,0.0,3.0,36,0.00,,,0.00,meteohub,2013-09-08 03:16:00,
2013-09-07 21:22:00,66.0,39.0,29.70,ESE,103,1.0,3.0,37,0.00,,,0.00,meteohub,2013-09-08 03:22:00,
2013-09-07 21:28:00,66.4,39.4,29.70,ESE,103,3.0,3.0,37,0.00,,,0.00,meteohub,2013-09-08 03:28:00,
2013-09-07 21:34:00,66.7,39.0,29.70,ENE,68,2.0,3.0,36,0.00,,,0.00,meteohub,2013-09-08 03:34:00,
2013-09-07 21:40:00,67.3,38.7,29.70,ENE,62,1.0,5.0,35,0.00,,,0.00,meteohub,2013-09-08 03:40:00,
2013-09-07 21:46:00,67.5,38.8,29.70,ENE,63,3.0,5.0,35,0.00,,,0.00,meteohub,2013-09-08 03:46:00,
2013-09-07 21:52:00,66.7,39.0,29.71,WSW,239,4.0,8.0,36,0.00,,,0.00,meteohub,2013-09-08 03:52:00,
2013-09-07 21:58:00,66.4,39.4,29.71,WSW,239,6.0,8.0,37,0.00,,,0.00,meteohub,2013-09-08 03:58:00,
2013-09-07 22:01:00,66.4,39.4,29.71,WSW,239,4.0,8.0,37,0.00,,,0.00,meteohub,2013-09-08 04:01:00,
2013-09-07 22:02:00,66.4,39.4,29.71,WSW,239,5.0,8.0,37,0.00,,,0.00,meteohub,2013-09-08 04:02:00,
2013-09-07 22:05:00,66.2,39.2,29.71,WSW,245,4.0,8.0,37,0.00,,,0.00,meteohub,2013-09-08 04:05:00,
2013-09-07 22:08:00,66.0,39.7,29.71,WSW,248,3.0,8.0,38,0.00,,,0.00,meteohub,2013-09-08 04:08:00,
2013-09-07 22:14:00,65.8,39.6,29.71,West,262,4.0,8.0,38,0.00,,,0.00,meteohub,2013-09-08 04:14:00,
2013-09-07 22:20:00,65.7,39.4,29.71,West,262,3.0,8.0,38,0.00,,,0.00,meteohub,2013-09-08 04:20:00,
2013-09-07 22:23:00,65.7,39.4,29.72,West,262,2.0,7.0,38,0.00,,,0.00,meteohub,2013-09-08 04:23:00,
2013-09-07 22:29:00,65.1,39.6,29.72,West,262,4.0,7.0,39,0.00,,,0.00,meteohub,2013-09-08 04:29:00,
2013-09-07 22:35:00,65.5,39.9,29.72,WSW,257,4.0,6.0,39,0.00,,,0.00,meteohub,2013-09-08 04:35:00,
2013-09-07 22:41:00,65.5,39.9,29.72,WSW,253,4.0,7.0,39,0.00,,,0.00,meteohub,2013-09-08 04:41:00,
2013-09-07 22:47:00,66.0,39.7,29.72,WSW,245,3.0,9.0,38,0.00,,,0.00,meteohub,2013-09-08 04:47:00,
2013-09-07 22:53:00,66.4,39.9,29.72,WSW,246,6.0,9.0,38,0.00,,,0.00,meteohub,2013-09-08 04:53:00,
2013-09-07 22:59:00,66.9,40.5,29.72,WSW,245,5.0,10.0,38,0.00,,,0.00,meteohub,2013-09-08 04:59:00,
2013-09-07 23:05:00,66.9,39.7,29.73,WSW,252,3.0,10.0,37,0.00,,,0.00,meteohub,2013-09-08 05:05:00,
2013-09-07 23:11:00,66.9,40.5,29.72,SW,214,4.0,8.0,38,0.00,,,0.00,meteohub,2013-09-08 05:11:00,
2013-09-07 23:17:00,67.1,40.6,29.72,SW,215,6.0,10.0,38,0.00,,,0.00,meteohub,2013-09-08 05:17:00,
2013-09-07 23:23:00,66.9,41.2,29.71,SW,216,7.0,10.0,39,0.00,,,0.00,meteohub,2013-09-08 05:23:00,
2013-09-07 23:29:00,66.9,41.2,29.71,SW,220,6.0,9.0,39,0.00,,,0.00,meteohub,2013-09-08 05:29:00,
2013-09-07 23:35:00,66.9,41.2,29.71,SW,218,0.0,11.0,39,0.00,,,0.00,meteohub,2013-09-08 05:35:00,
2013-09-07 23:41:00,66.7,41.0,29.71,SW,218,1.0,11.0,39,0.00,,,0.00,meteohub,2013-09-08 05:41:00,
2013-09-07 23:47:00,66.4,40.6,29.71,SW,218,0.0,7.0,39,0.00,,,0.00,meteohub,2013-09-08 05:47:00,
2013-09-07 23:53:00,66.0,40.3,29.71,SW,218,0.0,5.0,39,0.00,,,0.00,meteohub,2013-09-08 05:53:00,
2013-09-07 23:59:00,65.7,40.6,29.71,SW,218,1.0,6.0,40,0.00,,,0.00,meteohub,2013-09-08 05:59:00,